Cape Fair, Missouri
Current Conditions -  °F | °C
As of 1:15 PM on Saturday 25 Oct 2014 (Local Time) from KFWB Reporting Station
Clear Clear  
Wind Chill: 81°   Ceiling: Unl
Heat Index: 82°   Visibility: 10mi
Dew Point: 63°   Wind: 6mph
Humidity: 54%   Direction: 220°SW
Pressure: 30.08"   Gusts: NA
Location:  36.73°N, 93.51°W
Report Text: KFWB 251815Z AUTO 22005KT 10SM CLR 27/17 A3008 RMK AO2
Loading
Personal Weather Stations






























Interactive Weather Map
Tropical Storm Tracking
New forecast layout! Learn more

10-Day Weather Forecast

Advertisements
Track Severe Weather on mobile